sensor_id;sensor_type;location;lat;lon;timestamp;P1;durP1;ratioP1;P2;durP2;ratioP2
63394;SDS011;49531;-34.520;150.798;2023-07-31T00:00:18;1.20;;;0.43;;
63394;SDS011;49531;-34.520;150.798;2023-07-31T00:02:45;0.47;;;0.40;;
63394;SDS011;49531;-34.520;150.798;2023-07-31T00:05:12;0.63;;;0.40;;
63394;SDS011;49531;-34.520;150.798;2023-07-31T00:07:39;1.05;;;0.43;;
63394;SDS011;49531;-34.520;150.798;2023-07-31T00:10:06;0.75;;;0.40;;
63394;SDS011;49531;-34.520;150.798;2023-07-31T00:12:34;0.50;;;0.50;;
63394;SDS011;49531;-34.520;150.798;2023-07-31T00:15:01;0.40;;;0.40;;
63394;SDS011;49531;-34.520;150.798;2023-07-31T00:17:30;1.85;;;0.50;;
63394;SDS011;49531;-34.520;150.798;2023-07-31T00:19:57;0.40;;;0.40;;
63394;SDS011;49531;-34.520;150.798;2023-07-31T00:22:24;0.50;;;0.40;;
63394;SDS011;49531;-34.520;150.798;2023-07-31T00:24:51;0.60;;;0.45;;
63394;SDS011;49531;-34.520;150.798;2023-07-31T00:27:18;0.75;;;0.45;;
63394;SDS011;49531;-34.520;150.798;2023-07-31T00:29:45;0.43;;;0.40;;
63394;SDS011;49531;-34.520;150.798;2023-07-31T00:32:12;0.95;;;0.40;;
63394;SDS011;49531;-34.520;150.798;2023-07-31T00:34:39;0.40;;;0.40;;
63394;SDS011;49531;-34.520;150.798;2023-07-31T00:37:06;0.70;;;0.50;;
63394;SDS011;49531;-34.520;150.798;2023-07-31T00:39:34;1.27;;;0.45;;
63394;SDS011;49531;-34.520;150.798;2023-07-31T00:42:01;4.28;;;0.70;;
63394;SDS011;49531;-34.520;150.798;2023-07-31T00:44:29;0.40;;;0.40;;
63394;SDS011;49531;-34.520;150.798;2023-07-31T00:46:56;1.80;;;0.70;;
63394;SDS011;49531;-34.520;150.798;2023-07-31T00:49:25;0.55;;;0.40;;
63394;SDS011;49531;-34.520;150.798;2023-07-31T00:51:52;1.25;;;0.40;;
63394;SDS011;49531;-34.520;150.798;2023-07-31T00:54:23;1.02;;;0.50;;
63394;SDS011;49531;-34.520;150.798;2023-07-31T00:56:50;1.45;;;0.40;;
63394;SDS011;49531;-34.520;150.798;2023-07-31T00:59:19;1.30;;;0.50;;
63394;SDS011;49531;-34.520;150.798;2023-07-31T01:01:46;0.60;;;0.52;;
63394;SDS011;49531;-34.520;150.798;2023-07-31T01:04:13;0.70;;;0.40;;
63394;SDS011;49531;-34.520;150.798;2023-07-31T01:06:48;0.52;;;0.40;;
63394;SDS011;49531;-34.520;150.798;2023-07-31T01:09:34;2.47;;;0.50;;
63394;SDS011;49531;-34.520;150.798;2023-07-31T01:12:12;0.82;;;0.40;;
63394;SDS011;49531;-34.520;150.798;2023-07-31T01:14:52;1.05;;;0.40;;
63394;SDS011;49531;-34.520;150.798;2023-07-31T01:17:30;0.47;;;0.40;;
63394;SDS011;49531;-34.520;150.798;2023-07-31T01:19:59;0.40;;;0.40;;
63394;SDS011;49531;-34.520;150.798;2023-07-31T01:28:19;0.60;;;0.40;;
63394;SDS011;49531;-34.520;150.798;2023-07-31T01:30:51;0.40;;;0.40;;
63394;SDS011;49531;-34.520;150.798;2023-07-31T01:33:21;1.42;;;0.52;;
63394;SDS011;49531;-34.520;150.798;2023-07-31T01:35:48;2.65;;;0.50;;
63394;SDS011;49531;-34.520;150.798;2023-07-31T01:38:20;0.73;;;0.50;;
63394;SDS011;49531;-34.520;150.798;2023-07-31T01:40:52;1.05;;;0.50;;
63394;SDS011;49531;-34.520;150.798;2023-07-31T01:43:19;0.50;;;0.50;;
63394;SDS011;49531;-34.520;150.798;2023-07-31T01:45:47;0.50;;;0.50;;
63394;SDS011;49531;-34.520;150.798;2023-07-31T01:48:14;2.85;;;0.50;;
63394;SDS011;49531;-34.520;150.798;2023-07-31T01:50:41;0.55;;;0.55;;
63394;SDS011;49531;-34.520;150.798;2023-07-31T01:53:08;0.57;;;0.50;;
63394;SDS011;49531;-34.520;150.798;2023-07-31T01:55:35;2.13;;;0.70;;
63394;SDS011;49531;-34.520;150.798;2023-07-31T01:58:02;0.80;;;0.60;;
63394;SDS011;49531;-34.520;150.798;2023-07-31T02:00:29;0.73;;;0.50;;
63394;SDS011;49531;-34.520;150.798;2023-07-31T02:02:56;1.08;;;0.52;;
63394;SDS011;49531;-34.520;150.798;2023-07-31T02:05:23;0.93;;;0.70;;
63394;SDS011;49531;-34.520;150.798;2023-07-31T02:07:50;1.33;;;0.60;;
63394;SDS011;49531;-34.520;150.798;2023-07-31T02:10:17;0.55;;;0.55;;
63394;SDS011;49531;-34.520;150.798;2023-07-31T02:12:44;1.42;;;0.57;;
63394;SDS011;49531;-34.520;150.798;2023-07-31T02:15:11;0.73;;;0.60;;
63394;SDS011;49531;-34.520;150.798;2023-07-31T02:17:39;10.88;;;1.05;;
63394;SDS011;49531;-34.520;150.798;2023-07-31T02:20:06;4.82;;;0.77;;
63394;SDS011;49531;-34.520;150.798;2023-07-31T02:22:33;1.00;;;0.65;;
63394;SDS011;49531;-34.520;150.798;2023-07-31T02:25:00;3.63;;;0.57;;
63394;SDS011;49531;-34.520;150.798;2023-07-31T02:27:27;2.33;;;0.60;;
63394;SDS011;49531;-34.520;150.798;2023-07-31T02:29:55;1.05;;;0.52;;
63394;SDS011;49531;-34.520;150.798;2023-07-31T02:32:24;2.35;;;0.60;;
63394;SDS011;49531;-34.520;150.798;2023-07-31T02:34:51;1.27;;;0.50;;
63394;SDS011;49531;-34.520;150.798;2023-07-31T02:37:18;0.63;;;0.40;;
63394;SDS011;49531;-34.520;150.798;2023-07-31T02:39:45;0.50;;;0.50;;
63394;SDS011;49531;-34.520;150.798;2023-07-31T02:42:14;0.70;;;0.50;;
63394;SDS011;49531;-34.520;150.798;2023-07-31T02:44:41;5.72;;;0.55;;
63394;SDS011;49531;-34.520;150.798;2023-07-31T02:47:08;9.00;;;0.60;;
63394;SDS011;49531;-34.520;150.798;2023-07-31T02:49:35;0.98;;;0.45;;
63394;SDS011;49531;-34.520;150.798;2023-07-31T02:52:03;1.10;;;0.50;;
63394;SDS011;49531;-34.520;150.798;2023-07-31T02:54:30;0.90;;;0.40;;
63394;SDS011;49531;-34.520;150.798;2023-07-31T02:56:57;1.27;;;0.50;;
63394;SDS011;49531;-34.520;150.798;2023-07-31T02:59:24;0.65;;;0.50;;
63394;SDS011;49531;-34.520;150.798;2023-07-31T03:01:51;0.50;;;0.47;;
63394;SDS011;49531;-34.520;150.798;2023-07-31T03:04:18;0.70;;;0.40;;
63394;SDS011;49531;-34.520;150.798;2023-07-31T03:06:46;1.75;;;0.60;;
63394;SDS011;49531;-34.520;150.798;2023-07-31T03:09:13;1.10;;;0.40;;
63394;SDS011;49531;-34.520;150.798;2023-07-31T03:11:40;2.30;;;0.50;;
63394;SDS011;49531;-34.520;150.798;2023-07-31T03:14:07;0.40;;;0.40;;
63394;SDS011;49531;-34.520;150.798;2023-07-31T03:16:34;0.73;;;0.50;;
63394;SDS011;49531;-34.520;150.798;2023-07-31T03:19:01;0.88;;;0.50;;
63394;SDS011;49531;-34.520;150.798;2023-07-31T03:21:28;0.50;;;0.50;;
63394;SDS011;49531;-34.520;150.798;2023-07-31T03:23:55;0.50;;;0.50;;
63394;SDS011;49531;-34.520;150.798;2023-07-31T03:26:22;0.57;;;0.45;;
63394;SDS011;49531;-34.520;150.798;2023-07-31T03:28:49;0.57;;;0.50;;
63394;SDS011;49531;-34.520;150.798;2023-07-31T03:31:16;1.17;;;0.50;;
63394;SDS011;49531;-34.520;150.798;2023-07-31T03:33:43;0.43;;;0.40;;
63394;SDS011;49531;-34.520;150.798;2023-07-31T03:36:10;3.25;;;0.50;;
63394;SDS011;49531;-34.520;150.798;2023-07-31T03:38:38;3.13;;;0.50;;
63394;SDS011;49531;-34.520;150.798;2023-07-31T03:41:08;0.38;;;0.38;;
63394;SDS011;49531;-34.520;150.798;2023-07-31T03:43:37;0.32;;;0.32;;
63394;SDS011;49531;-34.520;150.798;2023-07-31T03:46:04;0.90;;;0.50;;
63394;SDS011;49531;-34.520;150.798;2023-07-31T03:48:31;0.38;;;0.38;;
63394;SDS011;49531;-34.520;150.798;2023-07-31T03:50:58;0.40;;;0.40;;
63394;SDS011;49531;-34.520;150.798;2023-07-31T03:53:25;1.38;;;0.50;;
63394;SDS011;49531;-34.520;150.798;2023-07-31T03:55:52;0.55;;;0.40;;
63394;SDS011;49531;-34.520;150.798;2023-07-31T03:58:20;1.38;;;0.40;;
63394;SDS011;49531;-34.520;150.798;2023-07-31T04:00:47;0.60;;;0.45;;
63394;SDS011;49531;-34.520;150.798;2023-07-31T04:03:14;0.47;;;0.47;;
63394;SDS011;49531;-34.520;150.798;2023-07-31T04:05:41;2.00;;;0.50;;
63394;SDS011;49531;-34.520;150.798;2023-07-31T04:08:08;0.43;;;0.43;;
63394;SDS011;49531;-34.520;150.798;2023-07-31T04:10:35;0.70;;;0.40;;
63394;SDS011;49531;-34.520;150.798;2023-07-31T04:13:02;0.52;;;0.40;;
63394;SDS011;49531;-34.520;150.798;2023-07-31T04:15:29;0.65;;;0.40;;
63394;SDS011;49531;-34.520;150.798;2023-07-31T04:17:56;1.35;;;0.40;;
63394;SDS011;49531;-34.520;150.798;2023-07-31T04:20:23;0.82;;;0.43;;
63394;SDS011;49531;-34.520;150.798;2023-07-31T04:22:50;0.40;;;0.40;;
63394;SDS011;49531;-34.520;150.798;2023-07-31T04:25:17;0.90;;;0.50;;
63394;SDS011;49531;-34.520;150.798;2023-07-31T04:27:44;0.45;;;0.30;;
63394;SDS011;49531;-34.520;150.798;2023-07-31T04:30:11;0.73;;;0.40;;
63394;SDS011;49531;-34.520;150.798;2023-07-31T04:32:38;0.75;;;0.40;;
63394;SDS011;49531;-34.520;150.798;2023-07-31T04:35:05;1.42;;;0.40;;
63394;SDS011;49531;-34.520;150.798;2023-07-31T04:37:33;0.40;;;0.40;;
63394;SDS011;49531;-34.520;150.798;2023-07-31T04:40:00;0.80;;;0.50;;
63394;SDS011;49531;-34.520;150.798;2023-07-31T04:42:27;0.40;;;0.40;;
63394;SDS011;49531;-34.520;150.798;2023-07-31T04:44:55;0.45;;;0.43;;
63394;SDS011;49531;-34.520;150.798;2023-07-31T04:47:22;0.50;;;0.40;;
63394;SDS011;49531;-34.520;150.798;2023-07-31T04:49:49;0.47;;;0.40;;
63394;SDS011;49531;-34.520;150.798;2023-07-31T04:52:16;0.40;;;0.40;;
63394;SDS011;49531;-34.520;150.798;2023-07-31T04:54:43;2.55;;;0.57;;
63394;SDS011;49531;-34.520;150.798;2023-07-31T04:57:11;0.50;;;0.40;;
63394;SDS011;49531;-34.520;150.798;2023-07-31T04:59:38;0.40;;;0.40;;
63394;SDS011;49531;-34.520;150.798;2023-07-31T05:02:05;3.72;;;0.50;;
63394;SDS011;49531;-34.520;150.798;2023-07-31T05:04:33;1.08;;;0.30;;
63394;SDS011;49531;-34.520;150.798;2023-07-31T05:07:00;0.65;;;0.50;;
63394;SDS011;49531;-34.520;150.798;2023-07-31T05:09:27;0.98;;;0.38;;
63394;SDS011;49531;-34.520;150.798;2023-07-31T05:11:54;1.50;;;0.50;;
63394;SDS011;49531;-34.520;150.798;2023-07-31T05:14:21;0.70;;;0.40;;
63394;SDS011;49531;-34.520;150.798;2023-07-31T05:16:48;0.45;;;0.45;;
63394;SDS011;49531;-34.520;150.798;2023-07-31T05:19:15;0.50;;;0.50;;
63394;SDS011;49531;-34.520;150.798;2023-07-31T05:21:42;1.70;;;0.50;;
63394;SDS011;49531;-34.520;150.798;2023-07-31T05:24:10;0.40;;;0.40;;
63394;SDS011;49531;-34.520;150.798;2023-07-31T05:26:37;0.43;;;0.40;;
63394;SDS011;49531;-34.520;150.798;2023-07-31T05:29:04;0.50;;;0.50;;
63394;SDS011;49531;-34.520;150.798;2023-07-31T05:31:31;0.95;;;0.60;;
63394;SDS011;49531;-34.520;150.798;2023-07-31T05:33:58;0.93;;;0.70;;
63394;SDS011;49531;-34.520;150.798;2023-07-31T05:36:25;0.60;;;0.60;;
63394;SDS011;49531;-34.520;150.798;2023-07-31T05:38:52;0.60;;;0.60;;
63394;SDS011;49531;-34.520;150.798;2023-07-31T05:41:19;0.68;;;0.50;;
63394;SDS011;49531;-34.520;150.798;2023-07-31T05:43:46;0.50;;;0.50;;
63394;SDS011;49531;-34.520;150.798;2023-07-31T05:46:14;0.73;;;0.50;;
63394;SDS011;49531;-34.520;150.798;2023-07-31T05:48:41;0.40;;;0.40;;
63394;SDS011;49531;-34.520;150.798;2023-07-31T05:51:08;0.50;;;0.50;;
63394;SDS011;49531;-34.520;150.798;2023-07-31T05:53:35;1.02;;;0.50;;
63394;SDS011;49531;-34.520;150.798;2023-07-31T05:56:06;0.50;;;0.50;;
63394;SDS011;49531;-34.520;150.798;2023-07-31T05:58:33;0.65;;;0.50;;
63394;SDS011;49531;-34.520;150.798;2023-07-31T06:01:00;0.60;;;0.40;;
63394;SDS011;49531;-34.520;150.798;2023-07-31T06:03:27;0.60;;;0.60;;
63394;SDS011;49531;-34.520;150.798;2023-07-31T06:05:54;1.58;;;0.70;;
63394;SDS011;49531;-34.520;150.798;2023-07-31T06:08:21;1.30;;;0.70;;
63394;SDS011;49531;-34.520;150.798;2023-07-31T06:10:48;1.02;;;0.70;;
63394;SDS011;49531;-34.520;150.798;2023-07-31T06:13:15;1.55;;;0.70;;
63394;SDS011;49531;-34.520;150.798;2023-07-31T06:15:45;1.38;;;0.80;;
63394;SDS011;49531;-34.520;150.798;2023-07-31T06:18:12;2.38;;;0.70;;
63394;SDS011;49531;-34.520;150.798;2023-07-31T06:20:39;2.85;;;0.80;;
63394;SDS011;49531;-34.520;150.798;2023-07-31T06:23:07;2.88;;;0.70;;
63394;SDS011;49531;-34.520;150.798;2023-07-31T06:25:34;1.40;;;0.80;;
63394;SDS011;49531;-34.520;150.798;2023-07-31T06:28:02;1.13;;;0.60;;
63394;SDS011;49531;-34.520;150.798;2023-07-31T06:30:29;0.57;;;0.52;;
63394;SDS011;49531;-34.520;150.798;2023-07-31T06:32:56;0.75;;;0.60;;
63394;SDS011;49531;-34.520;150.798;2023-07-31T06:35:23;0.85;;;0.60;;
63394;SDS011;49531;-34.520;150.798;2023-07-31T06:37:50;0.50;;;0.40;;
63394;SDS011;49531;-34.520;150.798;2023-07-31T06:40:20;0.50;;;0.50;;
63394;SDS011;49531;-34.520;150.798;2023-07-31T06:42:50;1.48;;;0.50;;
63394;SDS011;49531;-34.520;150.798;2023-07-31T06:45:20;2.70;;;0.50;;
63394;SDS011;49531;-34.520;150.798;2023-07-31T06:47:48;0.73;;;0.50;;
63394;SDS011;49531;-34.520;150.798;2023-07-31T06:50:15;1.17;;;0.60;;
63394;SDS011;49531;-34.520;150.798;2023-07-31T06:52:43;0.50;;;0.50;;
63394;SDS011;49531;-34.520;150.798;2023-07-31T06:55:17;0.50;;;0.50;;
63394;SDS011;49531;-34.520;150.798;2023-07-31T06:57:46;1.02;;;0.70;;
63394;SDS011;49531;-34.520;150.798;2023-07-31T07:00:13;0.70;;;0.70;;
63394;SDS011;49531;-34.520;150.798;2023-07-31T07:02:41;2.50;;;0.70;;
63394;SDS011;49531;-34.520;150.798;2023-07-31T07:05:08;1.08;;;0.70;;
63394;SDS011;49531;-34.520;150.798;2023-07-31T07:07:36;0.95;;;0.73;;
63394;SDS011;49531;-34.520;150.798;2023-07-31T07:10:03;1.05;;;0.70;;
63394;SDS011;49531;-34.520;150.798;2023-07-31T07:12:31;1.45;;;1.00;;
63394;SDS011;49531;-34.520;150.798;2023-07-31T07:14:59;1.52;;;1.10;;
63394;SDS011;49531;-34.520;150.798;2023-07-31T07:17:27;4.13;;;1.20;;
63394;SDS011;49531;-34.520;150.798;2023-07-31T07:19:57;1.10;;;1.00;;
63394;SDS011;49531;-34.520;150.798;2023-07-31T07:22:24;1.10;;;0.93;;
63394;SDS011;49531;-34.520;150.798;2023-07-31T07:24:55;1.00;;;0.90;;
63394;SDS011;49531;-34.520;150.798;2023-07-31T07:27:22;1.83;;;1.00;;
63394;SDS011;49531;-34.520;150.798;2023-07-31T07:29:50;1.98;;;1.10;;
63394;SDS011;49531;-34.520;150.798;2023-07-31T07:32:18;1.13;;;1.00;;
63394;SDS011;49531;-34.520;150.798;2023-07-31T07:35:04;2.17;;;1.90;;
63394;SDS011;49531;-34.520;150.798;2023-07-31T07:37:32;6.07;;;3.13;;
63394;SDS011;49531;-34.520;150.798;2023-07-31T07:39:59;3.10;;;2.60;;
63394;SDS011;49531;-34.520;150.798;2023-07-31T07:42:26;2.53;;;2.00;;
63394;SDS011;49531;-34.520;150.798;2023-07-31T07:44:53;1.80;;;1.60;;
63394;SDS011;49531;-34.520;150.798;2023-07-31T07:47:21;2.13;;;1.40;;
63394;SDS011;49531;-34.520;150.798;2023-07-31T07:49:48;1.38;;;1.27;;
63394;SDS011;49531;-34.520;150.798;2023-07-31T07:52:15;1.48;;;1.23;;
63394;SDS011;49531;-34.520;150.798;2023-07-31T07:54:43;1.20;;;1.10;;
63394;SDS011;49531;-34.520;150.798;2023-07-31T07:57:10;1.42;;;1.15;;
63394;SDS011;49531;-34.520;150.798;2023-07-31T07:59:37;1.77;;;1.40;;
63394;SDS011;49531;-34.520;150.798;2023-07-31T08:02:04;2.90;;;1.40;;
63394;SDS011;49531;-34.520;150.798;2023-07-31T08:04:31;2.50;;;1.98;;
63394;SDS011;49531;-34.520;150.798;2023-07-31T08:06:58;2.25;;;1.80;;
63394;SDS011;49531;-34.520;150.798;2023-07-31T08:09:25;2.17;;;1.60;;
63394;SDS011;49531;-34.520;150.798;2023-07-31T08:11:52;3.28;;;1.33;;
63394;SDS011;49531;-34.520;150.798;2023-07-31T08:14:20;3.25;;;2.63;;
63394;SDS011;49531;-34.520;150.798;2023-07-31T08:16:47;3.78;;;2.92;;
63394;SDS011;49531;-34.520;150.798;2023-07-31T08:19:14;3.50;;;1.60;;
63394;SDS011;49531;-34.520;150.798;2023-07-31T08:21:41;3.40;;;1.50;;
63394;SDS011;49531;-34.520;150.798;2023-07-31T08:24:08;3.45;;;1.50;;
63394;SDS011;49531;-34.520;150.798;2023-07-31T08:26:35;2.33;;;1.60;;
63394;SDS011;49531;-34.520;150.798;2023-07-31T08:29:02;2.38;;;1.30;;
63394;SDS011;49531;-34.520;150.798;2023-07-31T08:31:29;3.13;;;1.30;;
63394;SDS011;49531;-34.520;150.798;2023-07-31T08:33:56;2.10;;;1.58;;
63394;SDS011;49531;-34.520;150.798;2023-07-31T08:36:23;1.48;;;1.10;;
63394;SDS011;49531;-34.520;150.798;2023-07-31T08:38:51;2.50;;;1.10;;
63394;SDS011;49531;-34.520;150.798;2023-07-31T08:41:18;3.28;;;1.20;;
63394;SDS011;49531;-34.520;150.798;2023-07-31T08:43:45;2.63;;;1.60;;
63394;SDS011;49531;-34.520;150.798;2023-07-31T08:46:13;3.10;;;1.05;;
63394;SDS011;49531;-34.520;150.798;2023-07-31T08:48:43;1.00;;;0.82;;
63394;SDS011;49531;-34.520;150.798;2023-07-31T08:51:13;0.88;;;0.80;;
63394;SDS011;49531;-34.520;150.798;2023-07-31T08:53:41;1.75;;;0.90;;
63394;SDS011;49531;-34.520;150.798;2023-07-31T08:56:08;1.30;;;1.00;;
63394;SDS011;49531;-34.520;150.798;2023-07-31T08:58:37;6.13;;;1.20;;
63394;SDS011;49531;-34.520;150.798;2023-07-31T09:01:05;2.05;;;1.10;;
63394;SDS011;49531;-34.520;150.798;2023-07-31T09:03:34;4.25;;;1.30;;
63394;SDS011;49531;-34.520;150.798;2023-07-31T09:06:02;1.60;;;1.30;;
63394;SDS011;49531;-34.520;150.798;2023-07-31T09:08:31;2.60;;;1.67;;
63394;SDS011;49531;-34.520;150.798;2023-07-31T09:11:00;2.97;;;1.77;;
63394;SDS011;49531;-34.520;150.798;2023-07-31T09:13:30;2.58;;;2.08;;
63394;SDS011;49531;-34.520;150.798;2023-07-31T09:15:58;4.30;;;2.35;;
63394;SDS011;49531;-34.520;150.798;2023-07-31T09:18:25;5.50;;;2.72;;
63394;SDS011;49531;-34.520;150.798;2023-07-31T09:21:02;3.40;;;2.38;;
63394;SDS011;49531;-34.520;150.798;2023-07-31T09:23:41;4.63;;;2.45;;
63394;SDS011;49531;-34.520;150.798;2023-07-31T09:26:10;3.97;;;2.60;;
63394;SDS011;49531;-34.520;150.798;2023-07-31T09:28:54;4.03;;;2.58;;
63394;SDS011;49531;-34.520;150.798;2023-07-31T09:31:32;3.38;;;2.50;;
63394;SDS011;49531;-34.520;150.798;2023-07-31T09:34:04;4.00;;;2.78;;
63394;SDS011;49531;-34.520;150.798;2023-07-31T09:36:31;5.30;;;2.65;;
63394;SDS011;49531;-34.520;150.798;2023-07-31T09:39:02;3.65;;;2.70;;
63394;SDS011;49531;-34.520;150.798;2023-07-31T09:41:31;5.63;;;2.97;;
63394;SDS011;49531;-34.520;150.798;2023-07-31T09:44:02;5.68;;;2.92;;
63394;SDS011;49531;-34.520;150.798;2023-07-31T09:46:30;5.25;;;2.72;;
63394;SDS011;49531;-34.520;150.798;2023-07-31T09:49:05;3.50;;;2.88;;
63394;SDS011;49531;-34.520;150.798;2023-07-31T09:51:35;3.33;;;2.50;;
63394;SDS011;49531;-34.520;150.798;2023-07-31T09:54:08;4.00;;;2.90;;
63394;SDS011;49531;-34.520;150.798;2023-07-31T09:56:41;5.10;;;2.80;;
63394;SDS011;49531;-34.520;150.798;2023-07-31T09:59:11;4.35;;;2.65;;
63394;SDS011;49531;-34.520;150.798;2023-07-31T10:01:40;3.95;;;2.45;;
63394;SDS011;49531;-34.520;150.798;2023-07-31T10:04:11;4.35;;;2.60;;
63394;SDS011;49531;-34.520;150.798;2023-07-31T10:06:39;5.35;;;2.70;;
63394;SDS011;49531;-34.520;150.798;2023-07-31T10:09:09;5.18;;;2.33;;
63394;SDS011;49531;-34.520;150.798;2023-07-31T10:11:38;4.05;;;2.50;;
63394;SDS011;49531;-34.520;150.798;2023-07-31T10:14:09;3.38;;;2.10;;
63394;SDS011;49531;-34.520;150.798;2023-07-31T10:16:38;3.70;;;2.00;;
63394;SDS011;49531;-34.520;150.798;2023-07-31T10:19:06;3.53;;;1.92;;
63394;SDS011;49531;-34.520;150.798;2023-07-31T10:21:34;2.50;;;1.80;;
63394;SDS011;49531;-34.520;150.798;2023-07-31T10:24:04;3.22;;;1.80;;
63394;SDS011;49531;-34.520;150.798;2023-07-31T10:26:31;4.00;;;1.70;;
63394;SDS011;49531;-34.520;150.798;2023-07-31T10:28:59;3.00;;;1.60;;
63394;SDS011;49531;-34.520;150.798;2023-07-31T10:31:27;2.40;;;1.40;;
63394;SDS011;49531;-34.520;150.798;2023-07-31T10:33:56;1.92;;;1.30;;
63394;SDS011;49531;-34.520;150.798;2023-07-31T10:36:25;2.55;;;1.50;;
63394;SDS011;49531;-34.520;150.798;2023-07-31T10:38:52;1.55;;;1.25;;
63394;SDS011;49531;-34.520;150.798;2023-07-31T10:41:33;2.80;;;1.38;;
63394;SDS011;49531;-34.520;150.798;2023-07-31T10:44:02;2.05;;;1.13;;
63394;SDS011;49531;-34.520;150.798;2023-07-31T10:46:32;2.40;;;1.20;;
63394;SDS011;49531;-34.520;150.798;2023-07-31T10:49:00;2.08;;;1.05;;
63394;SDS011;49531;-34.520;150.798;2023-07-31T10:51:32;2.33;;;1.10;;
63394;SDS011;49531;-34.520;150.798;2023-07-31T10:54:10;1.30;;;1.20;;
63394;SDS011;49531;-34.520;150.798;2023-07-31T10:56:40;1.38;;;1.00;;
63394;SDS011;49531;-34.520;150.798;2023-07-31T10:59:12;1.58;;;1.08;;
63394;SDS011;49531;-34.520;150.798;2023-07-31T11:01:50;2.88;;;1.23;;
63394;SDS011;49531;-34.520;150.798;2023-07-31T11:04:24;1.73;;;1.02;;
63394;SDS011;49531;-34.520;150.798;2023-07-31T11:06:56;2.05;;;1.15;;
63394;SDS011;49531;-34.520;150.798;2023-07-31T11:09:27;1.95;;;1.05;;
63394;SDS011;49531;-34.520;150.798;2023-07-31T11:11:56;1.83;;;1.17;;
63394;SDS011;49531;-34.520;150.798;2023-07-31T11:14:23;1.63;;;1.10;;
63394;SDS011;49531;-34.520;150.798;2023-07-31T11:16:50;1.10;;;1.00;;
63394;SDS011;49531;-34.520;150.798;2023-07-31T11:19:22;1.92;;;0.90;;
63394;SDS011;49531;-34.520;150.798;2023-07-31T11:21:51;1.95;;;1.00;;
63394;SDS011;49531;-34.520;150.798;2023-07-31T11:24:19;1.25;;;0.80;;
63394;SDS011;49531;-34.520;150.798;2023-07-31T11:26:51;2.00;;;0.80;;
63394;SDS011;49531;-34.520;150.798;2023-07-31T11:29:19;1.50;;;0.93;;
63394;SDS011;49531;-34.520;150.798;2023-07-31T11:31:47;1.50;;;0.95;;
63394;SDS011;49531;-34.520;150.798;2023-07-31T11:34:14;1.13;;;0.80;;
63394;SDS011;49531;-34.520;150.798;2023-07-31T11:36:52;1.33;;;0.77;;
63394;SDS011;49531;-34.520;150.798;2023-07-31T11:39:21;1.67;;;0.80;;
63394;SDS011;49531;-34.520;150.798;2023-07-31T11:41:48;3.30;;;0.90;;
63394;SDS011;49531;-34.520;150.798;2023-07-31T11:44:15;0.93;;;0.73;;
63394;SDS011;49531;-34.520;150.798;2023-07-31T11:46:42;1.30;;;0.90;;
63394;SDS011;49531;-34.520;150.798;2023-07-31T11:49:09;2.60;;;0.80;;
63394;SDS011;49531;-34.520;150.798;2023-07-31T11:51:36;1.58;;;0.80;;
63394;SDS011;49531;-34.520;150.798;2023-07-31T11:54:04;1.20;;;0.80;;
63394;SDS011;49531;-34.520;150.798;2023-07-31T11:56:32;1.73;;;0.70;;
63394;SDS011;49531;-34.520;150.798;2023-07-31T11:58:59;2.13;;;0.70;;
63394;SDS011;49531;-34.520;150.798;2023-07-31T12:01:29;1.48;;;0.80;;
63394;SDS011;49531;-34.520;150.798;2023-07-31T12:03:57;1.25;;;0.70;;
63394;SDS011;49531;-34.520;150.798;2023-07-31T12:06:32;1.27;;;0.70;;
63394;SDS011;49531;-34.520;150.798;2023-07-31T12:09:01;1.83;;;0.90;;
63394;SDS011;49531;-34.520;150.798;2023-07-31T12:11:30;1.48;;;0.90;;
63394;SDS011;49531;-34.520;150.798;2023-07-31T12:13:58;1.80;;;0.82;;
63394;SDS011;49531;-34.520;150.798;2023-07-31T12:16:26;2.97;;;0.80;;
63394;SDS011;49531;-34.520;150.798;2023-07-31T12:18:54;1.77;;;0.70;;
63394;SDS011;49531;-34.520;150.798;2023-07-31T12:21:21;1.50;;;0.73;;
63394;SDS011;49531;-34.520;150.798;2023-07-31T12:23:48;2.03;;;0.80;;
63394;SDS011;49531;-34.520;150.798;2023-07-31T12:26:19;2.15;;;0.98;;
63394;SDS011;49531;-34.520;150.798;2023-07-31T12:28:47;1.35;;;0.70;;
63394;SDS011;49531;-34.520;150.798;2023-07-31T12:31:16;1.50;;;0.80;;
63394;SDS011;49531;-34.520;150.798;2023-07-31T12:33:46;1.35;;;0.70;;
63394;SDS011;49531;-34.520;150.798;2023-07-31T12:36:16;1.08;;;0.70;;
63394;SDS011;49531;-34.520;150.798;2023-07-31T12:38:46;1.58;;;0.70;;
63394;SDS011;49531;-34.520;150.798;2023-07-31T12:41:13;2.08;;;0.70;;
63394;SDS011;49531;-34.520;150.798;2023-07-31T12:43:41;2.20;;;0.85;;
63394;SDS011;49531;-34.520;150.798;2023-07-31T12:46:09;1.75;;;0.82;;
63394;SDS011;49531;-34.520;150.798;2023-07-31T12:48:36;1.65;;;0.80;;
63394;SDS011;49531;-34.520;150.798;2023-07-31T12:51:04;1.25;;;0.70;;
63394;SDS011;49531;-34.520;150.798;2023-07-31T12:53:33;1.85;;;0.85;;
63394;SDS011;49531;-34.520;150.798;2023-07-31T12:56:00;1.02;;;0.70;;
63394;SDS011;49531;-34.520;150.798;2023-07-31T12:58:28;1.17;;;0.70;;
63394;SDS011;49531;-34.520;150.798;2023-07-31T13:00:55;1.17;;;0.80;;
63394;SDS011;49531;-34.520;150.798;2023-07-31T13:03:22;2.10;;;0.60;;
63394;SDS011;49531;-34.520;150.798;2023-07-31T13:05:50;0.93;;;0.50;;
63394;SDS011;49531;-34.520;150.798;2023-07-31T13:08:17;1.65;;;0.70;;
63394;SDS011;49531;-34.520;150.798;2023-07-31T13:10:44;1.95;;;0.70;;
63394;SDS011;49531;-34.520;150.798;2023-07-31T13:13:12;3.88;;;0.80;;
63394;SDS011;49531;-34.520;150.798;2023-07-31T13:15:39;1.35;;;0.60;;
63394;SDS011;49531;-34.520;150.798;2023-07-31T13:18:06;1.48;;;0.70;;
63394;SDS011;49531;-34.520;150.798;2023-07-31T13:20:33;1.50;;;0.70;;
63394;SDS011;49531;-34.520;150.798;2023-07-31T13:23:00;1.70;;;0.68;;
63394;SDS011;49531;-34.520;150.798;2023-07-31T13:25:27;1.95;;;0.75;;
63394;SDS011;49531;-34.520;150.798;2023-07-31T13:27:54;2.28;;;0.80;;
63394;SDS011;49531;-34.520;150.798;2023-07-31T13:30:21;1.42;;;0.70;;
63394;SDS011;49531;-34.520;150.798;2023-07-31T13:32:48;1.50;;;0.80;;
63394;SDS011;49531;-34.520;150.798;2023-07-31T13:35:16;1.85;;;0.80;;
63394;SDS011;49531;-34.520;150.798;2023-07-31T13:37:43;1.15;;;0.57;;
63394;SDS011;49531;-34.520;150.798;2023-07-31T13:40:10;2.95;;;0.80;;
63394;SDS011;49531;-34.520;150.798;2023-07-31T13:42:37;1.10;;;0.60;;
63394;SDS011;49531;-34.520;150.798;2023-07-31T13:45:04;2.28;;;0.75;;
63394;SDS011;49531;-34.520;150.798;2023-07-31T13:47:32;0.75;;;0.60;;
63394;SDS011;49531;-34.520;150.798;2023-07-31T13:49:59;1.55;;;0.70;;
63394;SDS011;49531;-34.520;150.798;2023-07-31T13:52:26;2.00;;;0.70;;
63394;SDS011;49531;-34.520;150.798;2023-07-31T13:54:53;1.80;;;0.75;;
63394;SDS011;49531;-34.520;150.798;2023-07-31T13:57:20;1.02;;;0.70;;
63394;SDS011;49531;-34.520;150.798;2023-07-31T13:59:49;1.17;;;0.60;;
63394;SDS011;49531;-34.520;150.798;2023-07-31T14:02:16;1.27;;;0.70;;
63394;SDS011;49531;-34.520;150.798;2023-07-31T14:04:43;1.35;;;0.70;;
63394;SDS011;49531;-34.520;150.798;2023-07-31T14:07:10;2.17;;;0.70;;
63394;SDS011;49531;-34.520;150.798;2023-07-31T14:09:37;1.80;;;0.80;;
63394;SDS011;49531;-34.520;150.798;2023-07-31T14:12:04;1.35;;;0.68;;
63394;SDS011;49531;-34.520;150.798;2023-07-31T14:14:32;1.33;;;0.80;;
63394;SDS011;49531;-34.520;150.798;2023-07-31T14:16:59;1.45;;;0.70;;
63394;SDS011;49531;-34.520;150.798;2023-07-31T14:19:26;1.85;;;0.80;;